createdAt,value
2017-04-07T00:00:13.490Z,12.29
2017-04-07T00:01:14.061Z,12.27
2017-04-07T00:02:14.632Z,12.25
2017-04-07T00:03:15.234Z,12.25
2017-04-07T00:04:15.775Z,12.21
2017-04-07T00:05:16.347Z,12.27
2017-04-07T00:06:16.935Z,12.28
2017-04-07T00:07:17.508Z,12.25
2017-04-07T00:08:18.080Z,12.29
2017-04-07T00:09:18.651Z,12.25
2017-04-07T00:10:19.221Z,12.18
2017-04-07T00:11:19.810Z,12.25
2017-04-07T00:12:20.383Z,12.21
2017-04-07T00:13:20.956Z,12.24
2017-04-07T00:14:21.526Z,12.21
2017-04-07T00:15:22.097Z,12.17
2017-04-07T00:16:22.672Z,12.17
2017-04-07T00:17:23.444Z,12.15
2017-04-07T00:18:24.016Z,12.10
2017-04-07T00:19:24.586Z,12.10
2017-04-07T00:20:25.159Z,12.07
2017-04-07T00:21:25.732Z,12.20
2017-04-07T00:22:26.302Z,12.18
2017-04-07T00:23:26.875Z,12.07
2017-04-07T00:24:27.447Z,12.18
2017-04-07T00:25:28.018Z,12.10
2017-04-07T00:26:28.591Z,12.13
2017-04-07T00:27:29.163Z,12.22
2017-04-07T00:28:29.735Z,12.17
2017-04-07T00:29:30.308Z,12.15
2017-04-07T00:30:30.880Z,12.13
2017-04-07T00:31:31.452Z,12.12
2017-04-07T00:32:32.023Z,12.20
2017-04-07T00:33:32.596Z,12.10
2017-04-07T00:34:33.169Z,12.17
2017-04-07T00:35:33.740Z,12.12
2017-04-07T00:36:34.311Z,12.10
2017-04-07T00:37:34.886Z,12.17
2017-04-07T00:38:35.457Z,12.21
2017-04-07T00:39:36.027Z,12.28
2017-04-07T00:40:36.600Z,12.25
2017-04-07T00:41:37.170Z,12.28
2017-04-07T00:42:37.744Z,12.25
2017-04-07T00:43:38.314Z,12.17
2017-04-07T00:44:38.886Z,12.12
2017-04-07T00:45:39.459Z,12.17
2017-04-07T00:46:40.047Z,12.13
2017-04-07T00:47:40.618Z,12.10
2017-04-07T00:48:41.189Z,12.18
2017-04-07T00:49:41.761Z,12.22
2017-04-07T00:50:42.333Z,12.17
2017-04-07T00:51:42.908Z,12.13
2017-04-07T00:52:43.478Z,12.07
2017-04-07T00:53:44.050Z,12.06
2017-04-07T00:54:44.624Z,12.20
2017-04-07T00:55:45.195Z,12.09
2017-04-07T00:56:45.766Z,12.15
2017-04-07T00:57:46.539Z,12.17
2017-04-07T00:58:47.110Z,12.21
2017-04-07T00:59:47.683Z,12.18
2017-04-07T01:00:48.272Z,12.15
2017-04-07T01:01:48.843Z,12.17
2017-04-07T01:02:49.430Z,12.13
2017-04-07T01:03:50.002Z,12.15
2017-04-07T01:04:50.574Z,12.10
2017-04-07T01:05:51.145Z,12.17
2017-04-07T01:06:51.718Z,12.10
2017-04-07T01:07:52.289Z,12.17
2017-04-07T01:08:52.861Z,12.03
2017-04-07T01:09:53.434Z,12.12
2017-04-07T01:10:54.005Z,12.09
2017-04-07T01:11:54.577Z,12.17
2017-04-07T01:12:55.149Z,12.15
2017-04-07T01:13:55.722Z,12.18
2017-04-07T01:14:56.294Z,12.18
2017-04-07T01:15:56.865Z,12.24
2017-04-07T01:16:57.437Z,12.21
2017-04-07T01:17:58.226Z,12.27
2017-04-07T01:18:58.798Z,12.27
2017-04-07T01:19:59.369Z,12.24
2017-04-07T01:20:59.943Z,12.28
2017-04-07T01:22:00.514Z,12.36
2017-04-07T01:23:01.089Z,12.42
2017-04-07T01:24:01.659Z,12.42
2017-04-07T01:25:02.229Z,12.42
2017-04-07T01:26:02.801Z,12.45
2017-04-07T01:27:03.374Z,12.50
2017-04-07T01:28:03.946Z,12.60
2017-04-07T01:29:04.518Z,12.57
2017-04-07T01:30:05.089Z,12.54
2017-04-07T01:31:05.662Z,12.62
2017-04-07T01:32:06.234Z,12.70
2017-04-07T01:33:06.806Z,12.68
2017-04-07T01:34:07.382Z,12.68
2017-04-07T01:35:07.951Z,12.70
2017-04-07T01:36:08.541Z,12.72
2017-04-07T01:37:09.113Z,12.76
2017-04-07T01:38:09.885Z,12.72
2017-04-07T01:39:10.457Z,12.79
2017-04-07T01:40:11.031Z,12.83
2017-04-07T01:41:11.603Z,12.75
2017-04-07T01:42:12.175Z,12.86
2017-04-07T01:43:12.748Z,12.95
2017-04-07T01:44:13.321Z,12.86
2017-04-07T01:45:13.892Z,12.79
2017-04-07T01:46:14.466Z,12.94
2017-04-07T01:47:15.038Z,12.93
2017-04-07T01:48:15.632Z,12.94
2017-04-07T01:49:16.197Z,12.90
2017-04-07T01:50:16.768Z,12.82
2017-04-07T01:51:17.346Z,12.94
2017-04-07T01:52:17.914Z,12.95
2017-04-07T01:53:18.485Z,12.91
2017-04-07T01:54:19.058Z,12.95
2017-04-07T01:55:19.633Z,13.03
2017-04-07T01:56:20.205Z,13.00
2017-04-07T01:57:20.775Z,13.01
2017-04-07T01:58:21.549Z,13.01
2017-04-07T01:59:22.121Z,13.03
2017-04-07T02:00:22.696Z,13.01
2017-04-07T02:01:23.269Z,13.04
2017-04-07T02:02:23.858Z,13.11
2017-04-07T02:03:24.430Z,13.05
2017-04-07T02:04:25.002Z,13.13
2017-04-07T02:05:25.575Z,13.08
2017-04-07T02:06:26.147Z,13.11
2017-04-07T02:07:26.718Z,13.05
2017-04-07T02:08:27.292Z,13.09
2017-04-07T02:09:27.865Z,13.05
2017-04-07T02:10:28.436Z,13.09
2017-04-07T02:11:29.010Z,13.09
2017-04-07T02:12:29.584Z,13.08
2017-04-07T02:13:30.155Z,13.16
2017-04-07T02:14:30.727Z,13.12
2017-04-07T02:15:31.298Z,13.09
2017-04-07T02:16:31.871Z,13.08
2017-04-07T02:17:32.443Z,13.16
2017-04-07T02:18:33.215Z,13.12
2017-04-07T02:19:33.789Z,13.13
2017-04-07T02:20:34.360Z,13.16
2017-04-07T02:21:34.931Z,13.15
2017-04-07T02:22:35.519Z,13.19
2017-04-07T02:23:36.114Z,13.16
2017-04-07T02:24:36.681Z,13.19
2017-04-07T02:25:37.252Z,13.19
2017-04-07T02:26:37.825Z,13.13
2017-04-07T02:27:38.395Z,13.28
2017-04-07T02:28:38.967Z,13.16
2017-04-07T02:29:39.541Z,13.27
2017-04-07T02:30:40.111Z,13.30
2017-04-07T02:31:40.682Z,13.30
2017-04-07T02:32:41.253Z,13.28
2017-04-07T02:33:41.842Z,13.22
2017-04-07T02:34:42.414Z,13.20
2017-04-07T02:35:42.986Z,13.30
2017-04-07T02:36:43.559Z,13.13
2017-04-07T02:37:44.134Z,13.27
2017-04-07T02:38:44.903Z,13.22
2017-04-07T02:39:45.474Z,13.27
2017-04-07T02:40:46.052Z,13.16
2017-04-07T02:41:46.619Z,13.16
2017-04-07T02:42:47.192Z,13.23
2017-04-07T02:43:47.764Z,13.27
2017-04-07T02:44:48.353Z,13.25
2017-04-07T02:45:48.941Z,13.22
2017-04-07T02:46:49.515Z,13.33
2017-04-07T02:47:50.088Z,13.08
2017-04-07T02:48:50.860Z,13.19
2017-04-07T02:49:51.434Z,13.23
2017-04-07T02:50:52.007Z,13.16
2017-04-07T02:51:52.579Z,13.27
2017-04-07T02:52:53.153Z,13.12
2017-04-07T02:53:53.725Z,13.19
2017-04-07T02:54:54.297Z,13.11
2017-04-07T02:55:54.871Z,13.09
2017-04-07T02:56:55.462Z,13.09
2017-04-07T02:57:56.033Z,13.15
2017-04-07T02:58:56.805Z,13.11
2017-04-07T02:59:57.378Z,13.15
2017-04-07T03:00:57.951Z,13.15
2017-04-07T03:01:58.523Z,13.18
2017-04-07T03:02:59.097Z,13.15
2017-04-07T03:03:59.670Z,13.09
2017-04-07T03:05:00.241Z,13.12
2017-04-07T03:06:00.813Z,13.09
2017-04-07T03:07:01.387Z,13.16
2017-04-07T03:08:01.960Z,13.16
2017-04-07T03:09:02.529Z,13.30
2017-04-07T03:10:03.101Z,13.28
2017-04-07T03:11:03.674Z,13.30
2017-04-07T03:12:04.248Z,13.23
2017-04-07T03:13:04.819Z,13.25
2017-04-07T03:14:05.394Z,13.19
2017-04-07T03:15:05.967Z,13.30
2017-04-07T03:16:06.539Z,13.31
2017-04-07T03:17:07.110Z,13.19
2017-04-07T03:18:07.685Z,13.22
2017-04-07T03:19:08.457Z,13.27
2017-04-07T03:20:09.032Z,13.28
2017-04-07T03:21:09.603Z,13.35
2017-04-07T03:22:10.177Z,13.33
2017-04-07T03:23:10.750Z,13.23
2017-04-07T03:24:11.324Z,13.19
2017-04-07T03:25:11.914Z,13.20
2017-04-07T03:26:12.484Z,13.23
2017-04-07T03:27:13.056Z,13.30
2017-04-07T03:28:13.629Z,13.19
2017-04-07T03:29:14.203Z,13.28
2017-04-07T03:30:14.794Z,13.15
2017-04-07T03:31:15.383Z,13.37
2017-04-07T03:32:15.954Z,13.19
2017-04-07T03:33:16.527Z,13.20
2017-04-07T03:34:17.100Z,13.22
2017-04-07T03:35:17.690Z,13.16
2017-04-07T03:36:18.260Z,13.19
2017-04-07T03:37:18.833Z,13.19
2017-04-07T03:38:19.406Z,13.22
2017-04-07T03:39:20.196Z,13.27
2017-04-07T03:40:20.767Z,13.23
2017-04-07T03:41:21.342Z,13.28
2017-04-07T03:42:21.913Z,13.19
2017-04-07T03:43:22.486Z,13.20
2017-04-07T03:44:23.077Z,13.13
2017-04-07T03:45:23.647Z,13.22
2017-04-07T03:46:24.238Z,13.22
2017-04-07T03:47:24.809Z,13.08
2017-04-07T03:48:25.381Z,13.13
2017-04-07T03:49:25.952Z,13.09
2017-04-07T03:50:26.525Z,13.11
2017-04-07T03:51:27.111Z,13.16
2017-04-07T03:52:27.687Z,13.20
2017-04-07T03:53:28.259Z,13.22
2017-04-07T03:54:28.831Z,13.20
2017-04-07T03:55:29.405Z,13.23
2017-04-07T03:56:29.976Z,13.23
2017-04-07T03:57:30.548Z,13.28
2017-04-07T03:58:31.136Z,13.12
2017-04-07T03:59:31.912Z,13.28
2017-04-07T04:00:32.481Z,13.22
2017-04-07T04:01:33.055Z,13.22
2017-04-07T04:02:33.627Z,13.33
2017-04-07T04:03:34.216Z,13.28
2017-04-07T04:04:34.791Z,13.16
2017-04-07T04:05:35.379Z,13.19
2017-04-07T04:06:35.950Z,13.25
2017-04-07T04:07:36.524Z,13.27
2017-04-07T04:08:37.102Z,13.30
2017-04-07T04:09:37.690Z,13.23
2017-04-07T04:10:38.261Z,13.16
2017-04-07T04:11:38.834Z,13.19
2017-04-07T04:12:39.408Z,13.19
2017-04-07T04:13:39.979Z,13.18
2017-04-07T04:14:40.554Z,13.16
2017-04-07T04:15:41.127Z,13.27
2017-04-07T04:16:41.698Z,13.25
2017-04-07T04:17:42.270Z,13.23
2017-04-07T04:18:42.844Z,13.27
2017-04-07T04:19:43.618Z,13.37
2017-04-07T04:20:44.194Z,13.37
2017-04-07T04:21:44.766Z,13.33
2017-04-07T04:22:45.336Z,13.35
2017-04-07T04:23:45.908Z,13.41
2017-04-07T04:24:46.484Z,13.38
2017-04-07T04:25:47.054Z,13.28
2017-04-07T04:26:47.627Z,13.27
2017-04-07T04:27:48.217Z,13.35
2017-04-07T04:28:48.788Z,13.25
2017-04-07T04:29:49.363Z,13.35
2017-04-07T04:30:49.961Z,13.33
2017-04-07T04:31:50.529Z,13.31
2017-04-07T04:32:51.095Z,13.33
2017-04-07T04:33:51.671Z,13.31
2017-04-07T04:34:52.241Z,13.30
2017-04-07T04:35:52.814Z,13.27
2017-04-07T04:36:53.387Z,13.35
2017-04-07T04:37:53.959Z,13.33
2017-04-07T04:38:54.534Z,13.31
2017-04-07T04:39:55.106Z,13.35
2017-04-07T04:40:55.680Z,13.35
2017-04-07T04:41:56.263Z,13.30
2017-04-07T04:42:56.853Z,13.31
2017-04-07T04:43:57.428Z,13.35
2017-04-07T04:44:58.001Z,13.28
2017-04-07T04:45:58.574Z,13.23
2017-04-07T04:46:59.149Z,13.23
2017-04-07T04:47:59.722Z,13.33
2017-04-07T04:49:00.294Z,13.35
2017-04-07T04:50:00.868Z,13.22
2017-04-07T04:51:01.459Z,13.33
2017-04-07T04:52:02.031Z,13.38
2017-04-07T04:53:02.623Z,13.33
2017-04-07T04:54:03.196Z,13.30
2017-04-07T04:55:03.770Z,13.30
2017-04-07T04:56:04.343Z,13.30
2017-04-07T04:57:04.916Z,13.31
2017-04-07T04:58:05.491Z,13.23
2017-04-07T04:59:06.064Z,13.33
2017-04-07T05:00:06.637Z,13.35
2017-04-07T05:01:07.213Z,13.42
2017-04-07T05:02:07.819Z,13.44
2017-04-07T05:03:08.361Z,13.42
2017-04-07T05:04:08.938Z,13.42
2017-04-07T05:05:09.715Z,13.46
2017-04-07T05:06:10.289Z,13.39
2017-04-07T05:07:10.863Z,13.44
2017-04-07T05:08:11.435Z,13.41
2017-04-07T05:09:12.009Z,13.49
2017-04-07T05:10:12.581Z,13.42
2017-04-07T05:11:13.158Z,13.52
2017-04-07T05:12:13.729Z,13.42
2017-04-07T05:13:14.302Z,13.31
2017-04-07T05:14:14.877Z,13.47
2017-04-07T05:15:15.451Z,13.42
2017-04-07T05:16:16.026Z,13.53
2017-04-07T05:17:16.602Z,13.53
2017-04-07T05:18:17.180Z,13.46
2017-04-07T05:19:17.772Z,13.54
2017-04-07T05:20:18.366Z,13.52
2017-04-07T05:21:18.960Z,13.52
2017-04-07T05:22:19.535Z,13.49
2017-04-07T05:23:20.111Z,13.53
2017-04-07T05:24:20.686Z,13.47
2017-04-07T05:25:21.280Z,13.53
2017-04-07T05:26:21.856Z,13.56
2017-04-07T05:27:22.432Z,13.47
2017-04-07T05:28:23.010Z,13.46
2017-04-07T05:29:23.585Z,13.56
2017-04-07T05:30:24.161Z,13.62
2017-04-07T05:31:24.754Z,13.60
2017-04-07T05:32:25.331Z,13.56
2017-04-07T05:33:25.907Z,13.63
2017-04-07T05:34:26.483Z,13.67
2017-04-07T05:35:27.259Z,13.63
2017-04-07T05:36:27.835Z,13.70
2017-04-07T05:37:28.410Z,13.67
2017-04-07T05:38:28.987Z,13.71
2017-04-07T05:39:29.565Z,13.72
2017-04-07T05:40:30.140Z,13.78
2017-04-07T05:41:30.715Z,13.77
2017-04-07T05:42:31.292Z,13.87
2017-04-07T05:43:31.870Z,13.89
2017-04-07T05:44:32.447Z,13.89
2017-04-07T05:45:33.222Z,13.86
2017-04-07T05:46:33.816Z,13.92
2017-04-07T05:47:34.393Z,13.86
2017-04-07T05:48:34.969Z,13.95
2017-04-07T05:49:35.547Z,13.92
2017-04-07T05:50:36.124Z,13.90
2017-04-07T05:51:36.699Z,13.97
2017-04-07T05:52:37.277Z,14.03
2017-04-07T05:53:37.856Z,13.95
2017-04-07T05:54:38.434Z,14.04
2017-04-07T05:55:39.010Z,13.97
2017-04-07T05:56:39.587Z,14.04
2017-04-07T05:57:40.165Z,14.03
2017-04-07T05:58:40.743Z,13.97
2017-04-07T05:59:41.318Z,13.97
2017-04-07T06:00:41.895Z,14.04
2017-04-07T06:01:42.474Z,14.14
2017-04-07T06:02:43.049Z,14.08
2017-04-07T06:03:43.626Z,14.14
2017-04-07T06:04:44.202Z,14.14
2017-04-07T06:05:44.780Z,14.29
2017-04-07T06:06:45.357Z,14.22
2017-04-07T06:07:45.933Z,14.23
2017-04-07T06:08:46.513Z,14.26
2017-04-07T06:09:47.096Z,14.35
2017-04-07T06:10:47.668Z,14.35
2017-04-07T06:11:48.245Z,14.33
2017-04-07T06:12:48.823Z,14.41
2017-04-07T06:13:49.406Z,14.40
2017-04-07T06:14:49.997Z,14.40
2017-04-07T06:15:50.774Z,14.40
2017-04-07T06:16:51.350Z,14.53
2017-04-07T06:17:51.927Z,14.51
2017-04-07T06:18:52.503Z,14.50
2017-04-07T06:19:53.080Z,14.59
2017-04-07T06:20:53.659Z,14.68
2017-04-07T06:21:54.235Z,14.65
2017-04-07T06:22:54.812Z,14.73
2017-04-07T06:23:55.408Z,14.85
2017-04-07T06:24:55.985Z,14.81
2017-04-07T06:25:56.764Z,14.85
2017-04-07T06:26:57.340Z,14.88
2017-04-07T06:27:57.917Z,14.96
2017-04-07T06:28:58.496Z,14.89
2017-04-07T06:29:59.072Z,14.86
2017-04-07T06:30:59.649Z,14.89
2017-04-07T06:32:00.227Z,14.96
2017-04-07T06:33:00.806Z,14.97
2017-04-07T06:34:01.383Z,14.92
2017-04-07T06:35:01.981Z,15.02
2017-04-07T06:36:02.555Z,14.97
2017-04-07T06:37:03.131Z,14.99
2017-04-07T06:38:03.726Z,14.96
2017-04-07T06:39:04.304Z,15.07
2017-04-07T06:40:04.884Z,15.06
2017-04-07T06:41:05.462Z,15.10
2017-04-07T06:42:06.041Z,15.11
2017-04-07T06:43:06.618Z,15.24
2017-04-07T06:44:07.198Z,15.33
2017-04-07T06:45:07.774Z,15.28
2017-04-07T06:46:08.353Z,15.35
2017-04-07T06:47:08.929Z,15.37
2017-04-07T06:48:09.509Z,15.43
2017-04-07T06:49:10.104Z,15.37
2017-04-07T06:50:10.683Z,15.44
2017-04-07T06:51:11.261Z,15.57
2017-04-07T06:52:11.840Z,15.49
2017-04-07T06:53:12.420Z,15.52
2017-04-07T06:54:13.014Z,15.62
2017-04-07T06:55:13.616Z,15.58
2017-04-07T06:56:14.373Z,15.67
2017-04-07T06:57:14.950Z,15.68
2017-04-07T06:58:15.530Z,15.72
2017-04-07T06:59:16.108Z,15.75
2017-04-07T07:00:16.686Z,15.83
2017-04-07T07:01:17.464Z,15.80
2017-04-07T07:02:18.042Z,15.84
2017-04-07T07:03:18.639Z,15.88
2017-04-07T07:04:19.217Z,16.00
2017-04-07T07:05:19.796Z,15.97
2017-04-07T07:06:20.391Z,16.00
2017-04-07T07:07:20.969Z,16.08
2017-04-07T07:08:21.564Z,16.09
2017-04-07T07:09:22.144Z,16.01
2017-04-07T07:10:22.724Z,16.17
2017-04-07T07:11:23.302Z,16.23
2017-04-07T07:12:23.880Z,16.21
2017-04-07T07:13:24.484Z,16.24
2017-04-07T07:14:25.039Z,16.29
2017-04-07T07:15:25.618Z,16.26
2017-04-07T07:16:26.415Z,16.23
2017-04-07T07:17:26.993Z,16.31
2017-04-07T07:18:27.574Z,16.39
2017-04-07T07:19:28.151Z,16.39
2017-04-07T07:20:28.730Z,16.42
2017-04-07T07:21:29.310Z,16.42
2017-04-07T07:22:29.887Z,16.51
2017-04-07T07:23:30.466Z,16.54
2017-04-07T07:24:31.046Z,16.49
2017-04-07T07:25:31.625Z,16.49
2017-04-07T07:26:32.405Z,16.54
2017-04-07T07:27:32.983Z,16.65
2017-04-07T07:28:33.560Z,16.69
2017-04-07T07:29:34.153Z,16.74
2017-04-07T07:30:34.735Z,16.72
2017-04-07T07:31:35.313Z,16.87
2017-04-07T07:32:35.892Z,16.91
2017-04-07T07:33:36.470Z,17.06
2017-04-07T07:34:37.050Z,17.12
2017-04-07T07:35:37.629Z,17.15
2017-04-07T07:36:38.409Z,17.12
2017-04-07T07:37:38.988Z,17.23
2017-04-07T07:38:39.575Z,17.29
2017-04-07T07:39:40.161Z,17.36
2017-04-07T07:40:40.741Z,17.34
2017-04-07T07:41:41.320Z,17.38
2017-04-07T07:42:41.899Z,17.39
2017-04-07T07:43:42.479Z,17.48
2017-04-07T07:44:43.058Z,17.51
2017-04-07T07:45:43.638Z,17.56
2017-04-07T07:46:44.417Z,17.45
2017-04-07T07:47:44.994Z,17.51
2017-04-07T07:48:45.572Z,17.57
2017-04-07T07:49:46.158Z,17.65
2017-04-07T07:50:46.732Z,17.70
2017-04-07T07:51:47.311Z,17.74
2017-04-07T07:52:47.888Z,17.72
2017-04-07T07:53:48.470Z,17.79
2017-04-07T07:54:49.050Z,17.80
2017-04-07T07:55:49.629Z,17.87
2017-04-07T07:56:50.208Z,17.94
2017-04-07T07:57:50.788Z,18.01
2017-04-07T07:58:51.367Z,17.97
2017-04-07T07:59:51.946Z,18.08
2017-04-07T08:00:52.526Z,18.13
2017-04-07T08:01:53.107Z,18.13
2017-04-07T08:02:53.686Z,18.20
2017-04-07T08:03:54.265Z,18.29
2017-04-07T08:04:54.843Z,18.28
2017-04-07T08:05:55.425Z,18.26
2017-04-07T08:06:56.005Z,18.38
2017-04-07T08:07:56.583Z,18.40
2017-04-07T08:08:57.163Z,18.49
2017-04-07T08:09:57.744Z,18.47
2017-04-07T08:10:58.337Z,18.52
2017-04-07T08:11:58.918Z,18.55
2017-04-07T08:12:59.498Z,18.59
2017-04-07T08:14:00.077Z,18.68
2017-04-07T08:15:00.658Z,18.75
2017-04-07T08:16:01.239Z,18.65
2017-04-07T08:17:01.817Z,18.78
2017-04-07T08:18:02.398Z,18.66
2017-04-07T08:19:02.977Z,18.60
2017-04-07T08:20:03.560Z,18.50
2017-04-07T08:21:04.139Z,18.44
2017-04-07T08:22:04.720Z,18.45
2017-04-07T08:23:05.299Z,18.37
2017-04-07T08:24:05.880Z,18.38
2017-04-07T08:25:06.459Z,18.28
2017-04-07T08:26:07.040Z,18.29
2017-04-07T08:27:07.624Z,18.26
2017-04-07T08:28:08.199Z,18.23
2017-04-07T08:29:08.780Z,18.25
2017-04-07T08:30:09.360Z,18.28
2017-04-07T08:31:09.940Z,18.29
2017-04-07T08:32:10.720Z,18.29
2017-04-07T08:33:11.300Z,18.29
2017-04-07T08:34:11.879Z,18.38
2017-04-07T08:35:12.459Z,18.49
2017-04-07T08:36:13.039Z,18.45
2017-04-07T08:37:13.620Z,18.49
2017-04-07T08:38:14.201Z,18.55
2017-04-07T08:39:14.782Z,18.70
2017-04-07T08:40:15.363Z,18.62
2017-04-07T08:41:15.943Z,18.71
2017-04-07T08:42:16.542Z,18.77
2017-04-07T08:43:17.122Z,18.86
2017-04-07T08:44:17.703Z,18.88
2017-04-07T08:45:18.300Z,19.07
2017-04-07T08:46:18.880Z,19.07
2017-04-07T08:47:19.459Z,19.22
2017-04-07T08:48:20.040Z,19.27
2017-04-07T08:49:20.619Z,19.39
2017-04-07T08:50:21.201Z,19.49
2017-04-07T08:51:21.780Z,19.58
2017-04-07T08:52:22.364Z,19.59
2017-04-07T08:53:22.940Z,19.76
2017-04-07T08:54:23.538Z,19.89
2017-04-07T08:55:24.120Z,19.94
2017-04-07T08:56:24.702Z,19.95
2017-04-07T08:57:25.283Z,20.06
2017-04-07T08:58:25.863Z,20.14
2017-04-07T08:59:26.446Z,20.21
2017-04-07T09:00:27.025Z,20.18
2017-04-07T09:01:27.606Z,20.25
2017-04-07T09:02:28.188Z,20.26
2017-04-07T09:03:28.769Z,20.43
2017-04-07T09:04:29.351Z,20.39
2017-04-07T09:05:29.930Z,20.51
2017-04-07T09:06:30.511Z,20.58
2017-04-07T09:07:31.094Z,20.65
2017-04-07T09:08:31.676Z,20.63
2017-04-07T09:09:32.258Z,20.65
2017-04-07T09:10:32.839Z,20.69
2017-04-07T09:11:33.419Z,20.66
2017-04-07T09:12:34.202Z,20.77
2017-04-07T09:13:34.784Z,20.81
2017-04-07T09:14:35.364Z,20.72
2017-04-07T09:15:35.947Z,20.93
2017-04-07T09:16:36.531Z,20.97
2017-04-07T09:17:37.132Z,21.03
2017-04-07T09:18:37.710Z,21.03
2017-04-07T09:19:38.298Z,21.14
2017-04-07T09:20:38.874Z,21.18
2017-04-07T09:21:39.459Z,21.22
2017-04-07T09:22:40.243Z,21.22
2017-04-07T09:23:40.825Z,21.29
2017-04-07T09:24:41.408Z,21.29
2017-04-07T09:25:42.008Z,21.37
2017-04-07T09:26:42.589Z,21.36
2017-04-07T09:27:43.171Z,21.43
2017-04-07T09:28:43.756Z,21.46
2017-04-07T09:29:44.335Z,21.40
2017-04-07T09:30:44.919Z,21.61
2017-04-07T09:31:45.503Z,21.61
2017-04-07T09:32:46.086Z,21.64
2017-04-07T09:33:46.669Z,21.64
2017-04-07T09:34:47.252Z,21.76
2017-04-07T09:35:47.836Z,21.77
2017-04-07T09:36:48.418Z,21.82
2017-04-07T09:37:48.999Z,21.76
2017-04-07T09:38:49.582Z,21.72
2017-04-07T09:39:50.165Z,21.70
2017-04-07T09:40:50.748Z,21.55
2017-04-07T09:41:51.329Z,21.52
2017-04-07T09:42:51.910Z,21.46
2017-04-07T09:43:52.491Z,21.37
2017-04-07T09:44:53.074Z,21.09
2017-04-07T09:45:53.655Z,20.87
2017-04-07T09:46:54.237Z,20.81
2017-04-07T09:47:55.019Z,20.65
2017-04-07T09:48:55.601Z,20.59
2017-04-07T09:49:56.184Z,20.39
2017-04-07T09:50:56.766Z,20.29
2017-04-07T09:51:57.349Z,20.29
2017-04-07T09:52:57.934Z,20.19
2017-04-07T09:53:58.512Z,20.19
2017-04-07T09:54:59.092Z,20.06
2017-04-07T09:55:59.675Z,19.94
2017-04-07T09:57:00.257Z,19.95
2017-04-07T09:58:00.836Z,19.89
2017-04-07T09:59:01.417Z,20.00
2017-04-07T10:00:01.999Z,19.91
2017-04-07T10:01:02.580Z,19.91
2017-04-07T10:02:03.161Z,19.99
2017-04-07T10:03:03.942Z,20.02
2017-04-07T10:04:04.522Z,19.94
2017-04-07T10:05:05.104Z,19.92
2017-04-07T10:06:05.685Z,19.94
2017-04-07T10:07:06.267Z,19.94
2017-04-07T10:08:06.849Z,20.09
2017-04-07T10:09:07.429Z,20.21
2017-04-07T10:10:08.011Z,20.22
2017-04-07T10:11:08.595Z,20.13
2017-04-07T10:12:09.174Z,20.07
2017-04-07T10:13:09.756Z,20.07
2017-04-07T10:14:10.336Z,20.06
2017-04-07T10:15:10.919Z,20.10
2017-04-07T10:16:11.500Z,20.10
2017-04-07T10:17:12.082Z,20.22
2017-04-07T10:18:12.681Z,20.25
2017-04-07T10:19:13.263Z,20.28
2017-04-07T10:20:13.845Z,20.43
2017-04-07T10:21:14.429Z,20.58
2017-04-07T10:22:15.010Z,20.66
2017-04-07T10:23:15.594Z,20.93
2017-04-07T10:24:16.173Z,21.06
2017-04-07T10:25:16.755Z,21.27
2017-04-07T10:26:17.337Z,21.45
2017-04-07T10:27:17.938Z,21.57
2017-04-07T10:28:18.521Z,21.85
2017-04-07T10:29:19.122Z,22.06
2017-04-07T10:30:19.706Z,22.22
2017-04-07T10:31:20.310Z,22.35
2017-04-07T10:32:20.888Z,22.47
2017-04-07T10:33:21.472Z,22.53
2017-04-07T10:34:22.055Z,22.53
2017-04-07T10:35:22.640Z,22.54
2017-04-07T10:36:23.224Z,22.57
2017-04-07T10:37:23.809Z,22.63
2017-04-07T10:38:24.410Z,22.72
2017-04-07T10:39:24.995Z,22.68
2017-04-07T10:40:25.578Z,22.75
2017-04-07T10:41:26.159Z,22.66
2017-04-07T10:42:26.742Z,22.65
2017-04-07T10:43:27.325Z,22.54
2017-04-07T10:44:27.908Z,22.54
2017-04-07T10:45:28.490Z,22.55
2017-04-07T10:46:29.074Z,22.50
2017-04-07T10:47:29.657Z,22.41
2017-04-07T10:48:30.440Z,22.60
2017-04-07T10:49:31.026Z,22.84
2017-04-07T10:50:31.611Z,23.03
2017-04-07T10:51:32.193Z,23.21
2017-04-07T10:52:32.777Z,23.25
2017-04-07T10:53:33.361Z,23.36
2017-04-07T10:54:33.946Z,23.48
2017-04-07T10:55:34.529Z,23.58
2017-04-07T10:56:35.112Z,23.65
2017-04-07T10:57:35.695Z,23.66
2017-04-07T10:58:36.282Z,23.71
2017-04-07T10:59:36.881Z,23.86
2017-04-07T11:00:37.466Z,23.66
2017-04-07T11:01:38.063Z,23.58
2017-04-07T11:02:38.650Z,23.39
2017-04-07T11:03:39.232Z,23.36
2017-04-07T11:04:39.815Z,23.31
2017-04-07T11:05:40.397Z,23.10
2017-04-07T11:06:40.982Z,23.05
2017-04-07T11:07:41.566Z,22.91
2017-04-07T11:08:42.148Z,22.88
2017-04-07T11:09:42.729Z,22.93
2017-04-07T11:10:43.313Z,22.98
2017-04-07T11:11:43.895Z,22.99
2017-04-07T11:12:44.479Z,23.00
2017-04-07T11:13:45.279Z,23.05
2017-04-07T11:14:45.864Z,23.09
2017-04-07T11:15:46.450Z,23.10
2017-04-07T11:16:47.032Z,23.27
2017-04-07T11:17:47.616Z,23.37
2017-04-07T11:18:48.198Z,23.43
2017-04-07T11:19:48.784Z,23.66
2017-04-07T11:20:49.367Z,23.68
2017-04-07T11:21:49.951Z,23.84
2017-04-07T11:22:50.535Z,23.86
2017-04-07T11:23:51.322Z,23.95
2017-04-07T11:24:51.904Z,24.10
2017-04-07T11:25:52.488Z,24.14
2017-04-07T11:26:53.072Z,24.26
2017-04-07T11:27:53.657Z,24.24
2017-04-07T11:28:54.241Z,24.26
2017-04-07T11:29:54.828Z,24.28
2017-04-07T11:30:55.429Z,24.24
2017-04-07T11:31:56.013Z,24.17
2017-04-07T11:32:56.597Z,24.16
2017-04-07T11:33:57.183Z,24.18
2017-04-07T11:34:57.764Z,23.96
2017-04-07T11:35:58.347Z,23.81
2017-04-07T11:36:58.931Z,23.58
2017-04-07T11:37:59.516Z,23.61
2017-04-07T11:39:00.299Z,23.56
2017-04-07T11:40:00.882Z,23.54
2017-04-07T11:41:01.469Z,23.54
2017-04-07T11:42:02.052Z,23.63
2017-04-07T11:43:02.634Z,23.63
2017-04-07T11:44:03.219Z,23.59
2017-04-07T11:45:03.802Z,23.46
2017-04-07T11:46:04.384Z,23.31
2017-04-07T11:47:04.983Z,23.25
2017-04-07T11:48:05.566Z,23.06
2017-04-07T11:49:06.152Z,23.02
2017-04-07T11:50:06.753Z,22.78
2017-04-07T11:51:07.337Z,22.62
2017-04-07T11:52:07.921Z,22.50
2017-04-07T11:53:08.505Z,22.33
2017-04-07T11:54:09.289Z,22.33
2017-04-07T11:55:09.873Z,22.29
2017-04-07T11:56:10.460Z,22.23
2017-04-07T11:57:11.060Z,22.30
2017-04-07T11:58:11.644Z,22.44
2017-04-07T11:59:12.244Z,22.45
2017-04-07T12:00:12.828Z,22.53
2017-04-07T12:01:13.411Z,22.53
2017-04-07T12:02:13.993Z,22.69
2017-04-07T12:03:14.578Z,22.96
2017-04-07T12:04:15.163Z,23.09
2017-04-07T12:05:15.746Z,23.27
2017-04-07T12:06:16.330Z,23.36
2017-04-07T12:07:16.913Z,23.50
2017-04-07T12:08:17.499Z,23.58
2017-04-07T12:09:18.284Z,23.56
2017-04-07T12:10:18.870Z,23.66
2017-04-07T12:11:19.457Z,23.69
2017-04-07T12:12:20.059Z,23.88
2017-04-07T12:13:20.643Z,23.95
2017-04-07T12:14:21.229Z,24.01
2017-04-07T12:15:21.813Z,24.16
2017-04-07T12:16:22.399Z,24.29
2017-04-07T12:17:22.983Z,24.38
2017-04-07T12:18:23.571Z,24.47
2017-04-07T12:19:24.155Z,24.35
2017-04-07T12:20:24.740Z,24.29
2017-04-07T12:21:25.324Z,24.08
2017-04-07T12:22:25.908Z,23.80
2017-04-07T12:23:26.494Z,23.77
2017-04-07T12:24:27.077Z,23.69
2017-04-07T12:25:27.660Z,23.81
2017-04-07T12:26:28.244Z,23.80
2017-04-07T12:27:28.830Z,23.84
2017-04-07T12:28:29.414Z,24.08
2017-04-07T12:29:29.999Z,24.23
2017-04-07T12:30:30.589Z,24.36
2017-04-07T12:31:31.171Z,24.42
2017-04-07T12:32:31.757Z,24.28
2017-04-07T12:33:32.341Z,24.21
2017-04-07T12:34:32.922Z,24.16
2017-04-07T12:35:33.508Z,24.23
2017-04-07T12:36:34.092Z,24.30
2017-04-07T12:37:34.678Z,24.38
2017-04-07T12:38:35.262Z,24.51
2017-04-07T12:39:35.846Z,24.68
2017-04-07T12:40:36.432Z,24.76
2017-04-07T12:41:37.017Z,24.73
2017-04-07T12:42:37.601Z,24.74
2017-04-07T12:43:38.187Z,24.76
2017-04-07T12:44:38.974Z,24.68
2017-04-07T12:45:39.557Z,24.65
2017-04-07T12:46:40.141Z,24.40
2017-04-07T12:47:40.724Z,24.32
2017-04-07T12:48:41.311Z,24.10
2017-04-07T12:49:41.894Z,23.92
2017-04-07T12:50:42.494Z,23.84
2017-04-07T12:51:43.078Z,23.74
2017-04-07T12:52:43.662Z,23.61
2017-04-07T12:53:44.247Z,23.68
2017-04-07T12:54:44.831Z,23.56
2017-04-07T12:55:45.415Z,23.56
2017-04-07T12:56:46.018Z,23.48
2017-04-07T12:57:46.601Z,23.47
2017-04-07T12:58:47.184Z,23.48
2017-04-07T12:59:47.970Z,23.58